createdAt,value
2018-07-11T00:01:08.877Z,71.76
2018-07-11T00:04:15.951Z,71.45
2018-07-11T00:07:21.961Z,71.76
2018-07-11T00:10:28.843Z,71.35
2018-07-11T00:13:34.803Z,71.25
2018-07-11T00:16:45.855Z,71.30
2018-07-11T00:19:51.827Z,71.20
2018-07-11T00:22:57.004Z,70.98
2018-07-11T00:26:02.487Z,71.64
2018-07-11T00:29:07.682Z,71.89
2018-07-11T00:32:13.555Z,71.31
2018-07-11T00:35:19.614Z,71.93
2018-07-11T00:38:24.811Z,71.83
2018-07-11T00:41:30.561Z,72.06
2018-07-11T00:44:36.725Z,71.48
2018-07-11T00:47:42.446Z,71.11
2018-07-11T00:50:47.359Z,71.60
2018-07-11T00:53:52.502Z,71.98
2018-07-11T00:56:58.550Z,71.44
2018-07-11T01:00:03.767Z,71.23
2018-07-11T01:03:09.827Z,71.89
2018-07-11T01:06:15.421Z,71.94
2018-07-11T01:09:21.525Z,71.43
2018-07-11T01:12:29.250Z,71.94
2018-07-11T01:15:35.063Z,71.08
2018-07-11T01:18:50.823Z,71.14
2018-07-11T01:22:02.752Z,71.60
2018-07-11T01:25:09.275Z,71.70
2018-07-11T01:28:15.811Z,71.55
2018-07-11T01:31:22.386Z,71.56
2018-07-11T01:34:27.788Z,72.18
2018-07-11T01:37:33.979Z,71.74
2018-07-11T01:40:39.621Z,71.49
2018-07-11T01:43:46.216Z,72.36
2018-07-11T01:46:52.729Z,71.83
2018-07-11T01:49:58.544Z,72.52
2018-07-11T01:53:04.177Z,71.96
2018-07-11T01:56:09.419Z,71.46
2018-07-11T01:59:16.187Z,71.33
2018-07-11T02:02:22.120Z,71.65
2018-07-11T02:05:28.059Z,71.21
2018-07-11T02:08:34.094Z,71.50
2018-07-11T02:11:40.922Z,71.82
2018-07-11T02:14:52.008Z,71.55
2018-07-11T02:17:58.336Z,71.63
2018-07-11T02:21:03.422Z,71.43
2018-07-11T02:24:08.492Z,70.93
2018-07-11T02:27:15.473Z,70.83
2018-07-11T02:30:21.020Z,71.86
2018-07-11T02:33:26.734Z,71.83
2018-07-11T02:36:33.466Z,70.80
2018-07-11T02:39:39.799Z,72.47
2018-07-11T02:42:46.370Z,71.72
2018-07-11T02:45:51.457Z,71.67
2018-07-11T02:48:57.268Z,71.62
2018-07-11T02:52:03.413Z,72.04
2018-07-11T02:55:09.078Z,72.69
2018-07-11T02:58:14.282Z,72.18
2018-07-11T03:01:19.431Z,73.47
2018-07-11T03:04:25.637Z,72.97
2018-07-11T03:07:32.727Z,73.48
2018-07-11T03:10:39.440Z,72.67
2018-07-11T03:13:44.847Z,72.92
2018-07-11T03:16:51.221Z,72.84
2018-07-11T03:19:56.155Z,73.00
2018-07-11T03:23:01.914Z,72.82
2018-07-11T03:26:07.103Z,72.91
2018-07-11T03:29:13.966Z,73.81
2018-07-11T03:32:19.413Z,74.52
2018-07-11T03:35:25.223Z,75.61
2018-07-11T03:38:30.687Z,76.58
2018-07-11T03:41:37.755Z,76.15
2018-07-11T03:44:42.765Z,77.96
2018-07-11T03:47:48.451Z,77.40
2018-07-11T03:50:53.961Z,77.99
2018-07-11T03:54:00.970Z,77.93
2018-07-11T03:57:07.282Z,78.95
2018-07-11T04:00:14.786Z,78.08
2018-07-11T04:03:21.097Z,78.28
2018-07-11T04:06:27.934Z,78.48
2018-07-11T04:09:33.694Z,78.67
2018-07-11T04:12:38.852Z,78.33
2018-07-11T04:15:43.982Z,78.51
2018-07-11T04:18:49.122Z,77.46
2018-07-11T04:21:55.190Z,78.09
2018-07-11T04:25:01.010Z,77.82
2018-07-11T04:28:05.891Z,78.25
2018-07-11T04:31:11.778Z,78.38
2018-07-11T04:34:18.011Z,78.17
2018-07-11T04:37:25.059Z,79.13
2018-07-11T04:40:32.034Z,78.24
2018-07-11T04:43:37.553Z,79.36
2018-07-11T04:46:44.171Z,78.93
2018-07-11T04:49:49.179Z,79.11
2018-07-11T04:52:54.591Z,79.30
2018-07-11T04:56:02.176Z,79.21
2018-07-11T04:59:09.270Z,80.29
2018-07-11T05:02:15.223Z,80.53
2018-07-11T05:05:20.465Z,81.02
2018-07-11T05:08:25.922Z,81.02
2018-07-11T05:11:31.055Z,81.42
2018-07-11T05:14:37.254Z,79.36
2018-07-11T05:17:44.551Z,81.03
2018-07-11T05:20:50.059Z,81.20
2018-07-11T05:23:55.995Z,80.74
2018-07-11T05:27:01.929Z,82.37
2018-07-11T05:30:07.122Z,81.37
2018-07-11T05:33:12.576Z,81.87
2018-07-11T05:36:17.766Z,81.19
2018-07-11T05:39:23.175Z,81.84
2018-07-11T05:42:30.831Z,81.19
2018-07-11T05:45:36.334Z,81.28
2018-07-11T05:48:41.810Z,81.77
2018-07-11T05:51:46.926Z,80.85
2018-07-11T05:54:53.111Z,81.07
2018-07-11T05:57:58.842Z,80.93
2018-07-11T06:01:04.212Z,81.14
2018-07-11T06:04:10.160Z,81.10
2018-07-11T06:07:15.312Z,81.67
2018-07-11T06:10:21.170Z,81.34
2018-07-11T06:13:26.471Z,80.45
2018-07-11T06:16:33.589Z,81.29
2018-07-11T06:19:40.778Z,81.56
2018-07-11T06:22:46.579Z,81.05
2018-07-11T06:25:52.985Z,80.76
2018-07-11T06:28:59.286Z,81.44
2018-07-11T06:32:05.030Z,82.05
2018-07-11T06:35:10.841Z,82.38
2018-07-11T06:38:16.668Z,81.96
2018-07-11T06:41:23.541Z,81.89
2018-07-11T06:44:29.114Z,83.04
2018-07-11T06:47:35.610Z,82.66
2018-07-11T06:50:41.391Z,81.89
2018-07-11T06:53:47.163Z,82.01
2018-07-11T06:56:53.004Z,82.73
2018-07-11T07:00:00.390Z,82.89
2018-07-11T07:03:05.347Z,82.29
2018-07-11T07:06:11.609Z,83.04
2018-07-11T07:09:17.743Z,82.46
2018-07-11T07:12:24.291Z,82.69
2018-07-11T07:15:29.883Z,82.86
2018-07-11T07:18:35.075Z,82.88
2018-07-11T07:21:41.191Z,82.35
2018-07-11T07:24:46.063Z,83.09
2018-07-11T07:27:52.826Z,82.38
2018-07-11T07:30:59.074Z,82.85
2018-07-11T07:34:04.986Z,83.29
2018-07-11T07:37:11.156Z,82.92
2018-07-11T07:40:17.007Z,83.28
2018-07-11T07:43:23.891Z,82.69
2018-07-11T07:46:28.885Z,83.32
2018-07-11T07:49:34.978Z,83.31
2018-07-11T07:52:40.784Z,83.38
2018-07-11T07:55:47.692Z,83.47
2018-07-11T07:58:53.406Z,82.31
2018-07-11T08:01:59.263Z,83.15
2018-07-11T08:05:06.251Z,82.64
2018-07-11T08:08:11.141Z,82.21
2018-07-11T08:11:17.027Z,83.01
2018-07-11T08:14:22.202Z,83.10
2018-07-11T08:17:28.315Z,82.69
2018-07-11T08:20:35.327Z,83.07
2018-07-11T08:23:52.383Z,82.52
2018-07-11T08:27:08.420Z,83.86
2018-07-11T08:30:33.439Z,83.52
2018-07-11T08:33:52.353Z,83.10
2018-07-11T08:39:17.184Z,83.70
2018-07-11T08:42:31.793Z,83.84
2018-07-11T08:45:44.084Z,83.22
2018-07-11T08:51:00.335Z,83.74
2018-07-11T08:54:15.554Z,83.99
2018-07-11T08:57:29.973Z,83.83
2018-07-11T09:01:15.765Z,83.34
2018-07-11T09:08:41.791Z,82.51
2018-07-11T09:12:01.108Z,84.34
2018-07-11T09:15:14.927Z,83.59
2018-07-11T09:19:34.940Z,83.75
2018-07-11T09:23:19.747Z,82.97
2018-07-11T09:26:25.504Z,82.68
2018-07-11T09:29:30.879Z,82.80
2018-07-11T09:32:36.023Z,83.56
2018-07-11T09:35:41.638Z,83.44
2018-07-11T09:38:46.560Z,83.28
2018-07-11T09:41:52.785Z,82.89
2018-07-11T09:44:58.186Z,83.53
2018-07-11T09:48:03.398Z,83.89
2018-07-11T09:51:08.785Z,83.80
2018-07-11T09:54:15.884Z,83.74
2018-07-11T09:57:22.173Z,84.84
2018-07-11T10:00:32.527Z,83.97
2018-07-11T10:03:37.879Z,84.18
2018-07-11T10:06:42.820Z,83.95
2018-07-11T10:09:48.282Z,84.82
2018-07-11T10:12:54.189Z,84.18
2018-07-11T10:15:59.364Z,84.41
2018-07-11T10:19:05.887Z,85.23
2018-07-11T10:22:11.739Z,85.44
2018-07-11T10:25:18.634Z,84.61
2018-07-11T10:28:24.374Z,84.86
2018-07-11T10:31:29.939Z,85.86
2018-07-11T10:34:36.298Z,85.41
2018-07-11T10:37:42.480Z,85.12
2018-07-11T10:40:48.314Z,85.22
2018-07-11T10:43:53.816Z,85.21
2018-07-11T10:47:05.512Z,84.89
2018-07-11T10:50:10.380Z,84.27
2018-07-11T10:53:16.297Z,85.01
2018-07-11T10:56:24.150Z,85.16
2018-07-11T10:59:30.635Z,84.95
2018-07-11T11:02:36.747Z,84.91
2018-07-11T11:05:43.013Z,83.88
2018-07-11T11:08:48.895Z,84.27
2018-07-11T11:11:54.895Z,84.73
2018-07-11T11:15:00.615Z,83.42
2018-07-11T11:18:06.705Z,84.51
2018-07-11T11:21:12.619Z,84.36
2018-07-11T11:24:18.003Z,83.31
2018-07-11T11:27:23.231Z,83.06
2018-07-11T11:30:29.011Z,83.59
2018-07-11T11:33:34.200Z,83.26
2018-07-11T11:36:39.958Z,84.22
2018-07-11T11:39:45.788Z,84.14
2018-07-11T11:42:50.765Z,84.20
2018-07-11T11:45:57.733Z,83.95
2018-07-11T11:49:03.913Z,84.55
2018-07-11T11:52:10.954Z,84.42
2018-07-11T11:55:17.945Z,84.33
2018-07-11T11:58:25.007Z,85.01
2018-07-11T12:01:31.858Z,83.82
2018-07-11T12:04:37.646Z,84.25
2018-07-11T12:07:43.237Z,84.29
2018-07-11T12:10:48.817Z,83.99
2018-07-11T12:13:54.772Z,83.72
2018-07-11T12:17:00.996Z,84.11
2018-07-11T12:20:06.192Z,84.24
2018-07-11T12:23:12.180Z,85.21
2018-07-11T12:26:18.543Z,84.59
2018-07-11T12:29:23.726Z,83.67
2018-07-11T12:32:29.511Z,84.84
2018-07-11T12:35:35.807Z,84.85
2018-07-11T12:38:42.963Z,84.66
2018-07-11T12:41:48.698Z,84.21
2018-07-11T12:44:53.874Z,84.09
2018-07-11T12:48:05.079Z,84.63
2018-07-11T12:51:12.534Z,84.03
2018-07-11T12:54:17.675Z,83.89
2018-07-11T12:57:23.114Z,84.59
2018-07-11T13:00:28.275Z,84.88
2018-07-11T13:03:34.258Z,84.14
2018-07-11T13:06:40.475Z,83.94
2018-07-11T13:09:45.726Z,83.69
2018-07-11T13:12:52.568Z,84.69
2018-07-11T13:15:59.340Z,84.14
2018-07-11T13:19:06.865Z,84.34
2018-07-11T13:22:13.776Z,84.53
2018-07-11T13:25:19.626Z,84.38
2018-07-11T13:28:25.507Z,84.40
2018-07-11T13:31:30.700Z,84.42
2018-07-11T13:34:35.568Z,83.94
2018-07-11T13:37:41.551Z,83.94
2018-07-11T13:40:47.104Z,83.54
2018-07-11T13:43:53.376Z,83.94
2018-07-11T13:46:58.571Z,83.83
2018-07-11T13:50:05.512Z,84.01
2018-07-11T13:53:11.006Z,84.40
2018-07-11T13:56:17.054Z,84.03
2018-07-11T13:59:24.472Z,84.65
2018-07-11T14:02:30.059Z,83.45
2018-07-11T14:05:34.975Z,83.82
2018-07-11T14:08:41.319Z,83.44
2018-07-11T14:11:46.523Z,84.07
2018-07-11T14:14:52.890Z,84.12
2018-07-11T14:17:58.323Z,83.32
2018-07-11T14:21:03.171Z,83.25
2018-07-11T14:24:08.884Z,84.32
2018-07-11T14:27:15.455Z,83.67
2018-07-11T14:30:24.495Z,83.90
2018-07-11T14:33:31.485Z,83.76
2018-07-11T14:36:37.150Z,84.47
2018-07-11T14:39:43.099Z,84.22
2018-07-11T14:42:49.655Z,83.90
2018-07-11T14:45:55.140Z,83.88
2018-07-11T14:49:00.306Z,84.13
2018-07-11T14:52:06.282Z,83.40
2018-07-11T14:55:12.366Z,84.44
2018-07-11T14:58:17.887Z,84.53
2018-07-11T15:01:24.694Z,83.90
2018-07-11T15:04:31.281Z,83.74
2018-07-11T15:07:37.434Z,84.66
2018-07-11T15:10:44.334Z,83.33
2018-07-11T15:13:50.382Z,84.09
2018-07-11T15:16:55.357Z,83.65
2018-07-11T15:20:01.290Z,84.46
2018-07-11T15:23:06.369Z,84.10
2018-07-11T15:26:11.490Z,83.29
2018-07-11T15:29:18.780Z,83.29
2018-07-11T15:32:24.201Z,84.24
2018-07-11T15:35:29.335Z,83.92
2018-07-11T15:38:34.503Z,84.29
2018-07-11T15:41:40.500Z,84.27
2018-07-11T15:44:46.647Z,83.54
2018-07-11T15:47:52.081Z,84.44
2018-07-11T15:50:57.365Z,84.41
2018-07-11T15:54:03.288Z,84.02
2018-07-11T15:57:08.454Z,84.04
2018-07-11T16:00:14.634Z,84.27
2018-07-11T16:03:20.349Z,83.91
2018-07-11T16:06:27.363Z,83.91
2018-07-11T16:09:54.167Z,83.92
2018-07-11T16:12:59.069Z,83.43
2018-07-11T16:16:04.202Z,83.09
2018-07-11T16:19:09.579Z,83.66
2018-07-11T16:22:14.972Z,83.22
2018-07-11T16:25:20.168Z,83.68
2018-07-11T16:28:26.147Z,84.14
2018-07-11T16:31:31.676Z,83.67
2018-07-11T16:34:36.876Z,83.52
2018-07-11T16:37:43.076Z,83.29
2018-07-11T16:40:49.275Z,82.89
2018-07-11T16:43:55.093Z,83.23
2018-07-11T16:47:03.286Z,83.25
2018-07-11T16:50:10.291Z,82.88
2018-07-11T16:53:17.298Z,82.78
2018-07-11T16:56:23.898Z,82.76
2018-07-11T16:59:32.814Z,82.77
2018-07-11T17:02:42.447Z,83.08
2018-07-11T17:05:52.279Z,83.73
2018-07-11T17:08:58.137Z,82.42
2018-07-11T17:12:05.308Z,83.24
2018-07-11T17:15:12.194Z,82.19
2018-07-11T17:18:24.289Z,82.26
2018-07-11T17:21:32.938Z,82.27
2018-07-11T17:24:46.591Z,82.63
2018-07-11T17:27:59.496Z,81.87
2018-07-11T17:31:05.438Z,82.83
2018-07-11T17:34:10.422Z,83.08
2018-07-11T17:37:16.102Z,82.96
2018-07-11T17:40:24.765Z,82.69
2018-07-11T17:43:39.875Z,82.72
2018-07-11T17:46:47.428Z,82.15
2018-07-11T17:49:56.250Z,83.02
2018-07-11T17:53:10.706Z,82.90
2018-07-11T17:56:15.815Z,82.46
2018-07-11T17:59:28.849Z,82.53
2018-07-11T18:02:39.903Z,81.99
2018-07-11T18:05:56.622Z,82.12
2018-07-11T18:09:08.335Z,81.92
2018-07-11T18:12:21.902Z,82.73
2018-07-11T18:15:32.875Z,82.12
2018-07-11T18:18:45.296Z,82.52
2018-07-11T18:24:05.495Z,82.26
2018-07-11T18:27:18.459Z,81.93
2018-07-11T18:30:34.673Z,81.95
2018-07-11T18:33:57.926Z,82.59
2018-07-11T18:37:16.030Z,82.45
2018-07-11T18:40:39.566Z,82.33
2018-07-11T18:44:00.759Z,82.09
2018-07-11T18:49:22.710Z,81.67
2018-07-11T18:52:32.305Z,81.64
2018-07-11T18:55:45.337Z,81.97
2018-07-11T18:58:57.767Z,82.21
2018-07-11T19:02:17.771Z,81.35
2018-07-11T19:05:33.229Z,82.11
2018-07-11T19:08:48.131Z,82.32
2018-07-11T19:11:57.583Z,81.83
2018-07-11T19:15:10.511Z,81.24
2018-07-11T19:18:24.002Z,82.44
2018-07-11T19:21:40.707Z,82.60
2018-07-11T19:24:55.702Z,81.06
2018-07-11T19:28:14.399Z,81.99
2018-07-11T19:31:34.781Z,81.76
2018-07-11T19:34:46.379Z,81.88
2018-07-11T19:38:04.686Z,81.65
2018-07-11T19:41:21.944Z,80.93
2018-07-11T19:45:43.783Z,81.69
2018-07-11T19:48:59.149Z,81.44
2018-07-11T19:52:25.642Z,81.59
2018-07-11T19:56:12.029Z,81.31
2018-07-11T19:59:38.372Z,81.52
2018-07-11T20:02:57.512Z,81.79
2018-07-11T20:06:17.728Z,82.24
2018-07-11T20:09:32.113Z,81.66
2018-07-11T20:12:45.765Z,81.49
2018-07-11T20:16:09.539Z,82.01
2018-07-11T20:19:33.799Z,81.89
2018-07-11T20:22:57.022Z,81.29
2018-07-11T20:26:07.586Z,81.21
2018-07-11T20:29:13.060Z,81.46
2018-07-11T20:32:18.738Z,81.13
2018-07-11T20:35:24.728Z,81.85
2018-07-11T20:38:30.238Z,81.10
2018-07-11T20:41:36.020Z,81.90
2018-07-11T20:44:41.506Z,81.61
2018-07-11T20:47:46.798Z,80.92
2018-07-11T20:50:51.949Z,81.04
2018-07-11T20:53:57.094Z,81.57
2018-07-11T20:57:02.309Z,81.18
2018-07-11T21:00:18.779Z,81.59
2018-07-11T21:04:16.851Z,82.08
2018-07-11T21:07:32.238Z,81.36
2018-07-11T21:12:58.620Z,81.72
2018-07-11T21:16:20.900Z,81.63
2018-07-11T21:19:26.022Z,82.18
2018-07-11T21:22:32.143Z,82.39
2018-07-11T21:25:38.228Z,81.55
2018-07-11T21:28:44.259Z,81.28
2018-07-11T21:31:50.337Z,81.63
2018-07-11T21:34:56.394Z,81.98
2018-07-11T21:38:02.562Z,81.53
2018-07-11T21:41:07.751Z,81.67
2018-07-11T21:44:12.878Z,81.39
2018-07-11T21:47:18.040Z,81.26
2018-07-11T21:50:23.171Z,81.84
2018-07-11T21:53:29.707Z,82.23
2018-07-11T21:56:36.462Z,82.64
2018-07-11T21:59:42.562Z,81.84
2018-07-11T22:02:48.415Z,81.67
2018-07-11T22:05:53.559Z,82.14
2018-07-11T22:09:02.535Z,82.11
2018-07-11T22:12:07.402Z,81.63
2018-07-11T22:15:13.564Z,81.63
2018-07-11T22:18:30.626Z,80.89
2018-07-11T22:21:34.718Z,81.17
2018-07-11T22:24:38.264Z,81.14
2018-07-11T22:27:41.802Z,81.44
2018-07-11T22:30:45.868Z,81.46
2018-07-11T22:33:49.399Z,81.43
2018-07-11T22:36:53.925Z,81.03
2018-07-11T22:39:57.479Z,81.27
2018-07-11T22:43:01.448Z,81.17
2018-07-11T22:46:06.044Z,81.66
2018-07-11T22:49:10.178Z,81.68
2018-07-11T22:52:14.277Z,80.84
2018-07-11T22:55:18.766Z,80.48
2018-07-11T22:58:23.051Z,80.78
2018-07-11T23:01:26.582Z,80.80
2018-07-11T23:04:30.152Z,81.27
2018-07-11T23:07:33.697Z,80.53
2018-07-11T23:10:38.157Z,80.77
2018-07-11T23:13:42.366Z,81.35
2018-07-11T23:16:46.155Z,81.32
2018-07-11T23:19:51.437Z,81.15
2018-07-11T23:22:54.983Z,80.85
2018-07-11T23:25:59.046Z,80.29
2018-07-11T23:29:02.707Z,80.43
2018-07-11T23:32:06.983Z,80.70
2018-07-11T23:35:11.526Z,80.58
2018-07-11T23:38:15.904Z,80.74
2018-07-11T23:41:19.434Z,80.25
2018-07-11T23:44:24.035Z,81.19
2018-07-11T23:47:28.179Z,80.32
2018-07-11T23:50:31.728Z,80.84
2018-07-11T23:53:35.282Z,81.10
2018-07-11T23:56:39.854Z,80.74
2018-07-11T23:59:44.086Z,81.10
